createdAt,value
2023-03-19T00:00:31.368Z,101313.19
2023-03-19T00:02:58.732Z,101304.25
2023-03-19T00:05:26.078Z,101305.94
2023-03-19T00:07:53.203Z,101306.44
2023-03-19T00:10:20.641Z,101306.31
2023-03-19T00:12:47.743Z,101288.03
2023-03-19T00:15:15.512Z,101293.75
2023-03-19T00:17:43.445Z,101300.13
2023-03-19T00:20:12.741Z,101288.31
2023-03-19T00:22:40.371Z,101283.84
2023-03-19T00:25:09.968Z,101264.44
2023-03-19T00:27:38.631Z,101288.63
2023-03-19T00:30:07.384Z,101291.75
2023-03-19T00:32:35.933Z,101288.19
2023-03-19T00:35:06.391Z,101279.78
2023-03-19T00:37:34.563Z,101279.78
2023-03-19T00:40:02.148Z,101279.50
2023-03-19T00:42:31.567Z,101273.31
2023-03-19T00:44:58.904Z,101276.13
2023-03-19T00:47:27.128Z,101258.84
2023-03-19T00:49:54.306Z,101264.72
2023-03-19T00:52:21.908Z,101267.00
2023-03-19T00:54:50.334Z,101266.03
2023-03-19T00:57:18.508Z,101260.94
2023-03-19T00:59:45.634Z,101258.16
2023-03-19T01:02:12.918Z,101266.25
2023-03-19T01:04:40.169Z,101256.47
2023-03-19T01:07:07.489Z,101260.34
2023-03-19T01:09:36.057Z,101256.72
2023-03-19T01:12:04.904Z,101255.47
2023-03-19T01:14:33.131Z,101252.59
2023-03-19T01:17:00.853Z,101255.50
2023-03-19T01:19:28.855Z,101252.69
2023-03-19T01:21:56.016Z,101253.03
2023-03-19T01:24:24.232Z,101242.84
2023-03-19T01:26:54.673Z,101239.25
2023-03-19T01:29:32.562Z,101248.25
2023-03-19T01:32:08.837Z,101250.31
2023-03-19T01:35:06.523Z,101244.94
2023-03-19T01:37:33.899Z,101250.72
2023-03-19T01:40:01.145Z,101245.97
2023-03-19T01:42:28.580Z,101242.00
2023-03-19T01:45:36.672Z,101241.28
2023-03-19T01:48:39.650Z,101242.84
2023-03-19T01:51:14.435Z,101235.97
2023-03-19T01:54:14.625Z,101230.97
2023-03-19T01:56:51.370Z,101243.38
2023-03-19T01:59:56.625Z,101221.53
2023-03-19T02:02:44.915Z,101227.28
2023-03-19T02:05:36.085Z,101219.97
2023-03-19T02:08:09.976Z,101221.53
2023-03-19T02:10:37.760Z,101227.94
2023-03-19T02:13:04.999Z,101222.91
2023-03-19T02:15:32.734Z,101212.38
2023-03-19T02:18:00.108Z,101228.81
2023-03-19T02:20:35.175Z,101220.34
2023-03-19T02:23:18.257Z,101224.34
2023-03-19T02:25:48.261Z,101213.66
2023-03-19T02:28:19.674Z,101210.31
2023-03-19T02:30:48.951Z,101214.94
2023-03-19T02:33:19.030Z,101220.41
2023-03-19T02:35:52.036Z,101225.09
2023-03-19T02:38:22.537Z,101208.41
2023-03-19T02:40:58.337Z,101230.28
2023-03-19T02:43:25.626Z,101215.28
2023-03-19T02:45:53.339Z,101222.06
2023-03-19T02:48:20.648Z,101216.97
2023-03-19T02:50:47.899Z,101216.25
2023-03-19T02:53:16.052Z,101197.19
2023-03-19T02:55:43.500Z,101204.28
2023-03-19T02:58:10.804Z,101207.41
2023-03-19T03:00:38.689Z,101212.03
2023-03-19T03:03:09.701Z,101206.00
2023-03-19T03:05:36.820Z,101206.72
2023-03-19T03:08:04.878Z,101204.59
2023-03-19T03:10:33.702Z,101197.31
2023-03-19T03:13:01.690Z,101198.22
2023-03-19T03:15:28.941Z,101166.75
2023-03-19T03:17:56.916Z,101190.66
2023-03-19T03:20:24.858Z,101190.66
2023-03-19T03:22:53.786Z,101194.91
2023-03-19T03:25:21.336Z,101186.75
2023-03-19T03:27:48.541Z,101194.03
2023-03-19T03:30:16.350Z,101171.56
2023-03-19T03:32:44.019Z,101193.25
2023-03-19T03:35:11.602Z,101194.53
2023-03-19T03:37:39.806Z,101194.72
2023-03-19T03:40:08.169Z,101185.06
2023-03-19T03:42:37.526Z,101196.50
2023-03-19T03:45:08.239Z,101174.81
2023-03-19T03:47:35.966Z,101185.84
2023-03-19T03:50:07.412Z,101185.75
2023-03-19T03:52:34.808Z,101184.75
2023-03-19T03:55:01.902Z,101183.53
2023-03-19T03:57:30.612Z,101176.44
2023-03-19T03:59:57.801Z,101173.44
2023-03-19T04:02:25.379Z,101164.91
2023-03-19T04:04:52.713Z,101170.50
2023-03-19T04:07:20.138Z,101169.25
2023-03-19T04:09:53.317Z,101167.38
2023-03-19T04:12:20.531Z,101172.50
2023-03-19T04:14:48.320Z,101167.75
2023-03-19T04:17:15.547Z,101170.97
2023-03-19T04:19:44.138Z,101158.22
2023-03-19T04:22:11.714Z,101148.13
2023-03-19T04:24:39.231Z,101158.31
2023-03-19T04:27:07.451Z,101141.22
2023-03-19T04:29:35.845Z,101154.09
2023-03-19T04:32:04.382Z,101142.00
2023-03-19T04:34:32.001Z,101140.19
2023-03-19T04:36:59.378Z,101145.09
2023-03-19T04:39:27.199Z,101144.28
2023-03-19T04:41:54.393Z,101148.50
2023-03-19T04:44:44.746Z,101144.63
2023-03-19T04:47:13.399Z,101142.44
2023-03-19T04:49:56.621Z,101149.78
2023-03-19T04:52:25.414Z,101146.69
2023-03-19T04:54:52.948Z,101145.66
2023-03-19T04:57:20.395Z,101154.41
2023-03-19T04:59:49.156Z,101147.78
2023-03-19T05:02:17.324Z,101132.59
2023-03-19T05:04:45.896Z,101142.59
2023-03-19T05:07:15.649Z,101141.50
2023-03-19T05:09:44.197Z,101148.50
2023-03-19T05:12:12.476Z,101124.63
2023-03-19T05:14:51.237Z,101141.22
2023-03-19T05:17:25.288Z,101140.28
2023-03-19T05:20:11.896Z,101139.44
2023-03-19T05:22:44.732Z,101139.47
2023-03-19T05:25:12.320Z,101140.31
2023-03-19T05:27:42.022Z,101119.16
2023-03-19T05:30:14.721Z,101133.22
2023-03-19T05:33:08.014Z,101129.94
2023-03-19T05:35:39.820Z,101121.63
2023-03-19T05:38:22.290Z,101127.41
2023-03-19T05:40:56.309Z,101124.38
2023-03-19T05:43:34.831Z,101122.25
2023-03-19T05:46:06.793Z,101114.97
2023-03-19T05:48:34.622Z,101111.31
2023-03-19T05:51:04.271Z,101108.22
2023-03-19T05:53:35.882Z,101107.78
2023-03-19T05:56:23.285Z,101105.94
2023-03-19T05:59:05.474Z,101105.13
2023-03-19T06:01:37.619Z,101105.06
2023-03-19T06:04:06.189Z,101094.22
2023-03-19T06:06:34.356Z,101083.94
2023-03-19T06:09:02.854Z,101067.81
2023-03-19T06:11:40.637Z,101079.44
2023-03-19T06:14:27.995Z,101083.06
2023-03-19T06:17:15.425Z,101083.16
2023-03-19T06:19:42.773Z,101080.97
2023-03-19T06:22:10.275Z,101072.81
2023-03-19T06:24:37.388Z,101069.38
2023-03-19T06:27:04.680Z,101077.28
2023-03-19T06:29:31.896Z,101079.22
2023-03-19T06:32:09.068Z,101063.28
2023-03-19T06:34:39.398Z,101071.72
2023-03-19T06:37:06.883Z,101045.31
2023-03-19T06:39:35.063Z,101059.22
2023-03-19T06:42:02.288Z,101058.31
2023-03-19T06:44:30.146Z,101054.13
2023-03-19T06:46:57.438Z,101050.25
2023-03-19T06:49:24.653Z,101043.41
2023-03-19T06:51:51.732Z,101046.72
2023-03-19T06:54:19.058Z,101050.94
2023-03-19T06:56:47.110Z,101042.22
2023-03-19T06:59:14.227Z,101037.16
2023-03-19T07:01:42.269Z,101038.25
2023-03-19T07:04:10.098Z,101038.28
2023-03-19T07:06:37.248Z,101038.41
2023-03-19T07:09:05.030Z,101045.44
2023-03-19T07:11:35.631Z,101041.34
2023-03-19T07:14:03.573Z,101032.34
2023-03-19T07:16:31.027Z,101026.88
2023-03-19T07:18:58.218Z,101024.94
2023-03-19T07:21:25.395Z,101030.34
2023-03-19T07:23:52.541Z,101030.09
2023-03-19T07:26:19.819Z,101013.34
2023-03-19T07:28:47.013Z,101026.13
2023-03-19T07:31:14.260Z,101027.69
2023-03-19T07:33:41.552Z,101024.56
2023-03-19T07:36:09.215Z,101008.75
2023-03-19T07:38:36.317Z,101018.88
2023-03-19T07:41:04.325Z,101016.84
2023-03-19T07:43:31.597Z,101018.41
2023-03-19T07:45:59.641Z,101016.75
2023-03-19T07:48:27.772Z,101007.47
2023-03-19T07:50:54.975Z,101005.03
2023-03-19T07:53:22.280Z,101006.94
2023-03-19T07:55:49.504Z,101016.56
2023-03-19T07:58:17.149Z,101008.84
2023-03-19T08:00:45.291Z,100998.91
2023-03-19T08:03:13.248Z,100978.16
2023-03-19T08:05:40.460Z,100992.00
2023-03-19T08:08:07.692Z,100995.75
2023-03-19T08:10:36.603Z,100992.78
2023-03-19T08:13:05.465Z,100988.97
2023-03-19T08:15:33.082Z,100985.31
2023-03-19T08:18:01.856Z,100987.00
2023-03-19T08:20:29.435Z,100986.53
2023-03-19T08:22:57.773Z,100982.53
2023-03-19T08:25:26.156Z,100984.38
2023-03-19T08:27:54.456Z,100959.16
2023-03-19T08:30:21.651Z,100978.41
2023-03-19T08:32:49.522Z,100971.13
2023-03-19T08:35:17.311Z,100977.09
2023-03-19T08:37:44.434Z,100967.41
2023-03-19T08:40:12.116Z,100942.34
2023-03-19T08:42:44.406Z,100952.28
2023-03-19T08:45:14.257Z,100951.13
2023-03-19T08:47:42.555Z,100956.06
2023-03-19T08:50:11.228Z,100947.50
2023-03-19T08:52:39.186Z,100941.31
2023-03-19T08:55:07.563Z,100936.81
2023-03-19T08:57:35.639Z,100931.94
2023-03-19T09:00:05.727Z,100933.44
2023-03-19T09:02:32.871Z,100927.75
2023-03-19T09:05:00.034Z,100918.44
2023-03-19T09:07:27.209Z,100916.84
2023-03-19T09:09:54.337Z,100924.69
2023-03-19T09:12:21.460Z,100913.41
2023-03-19T09:14:51.885Z,100882.22
2023-03-19T09:17:19.136Z,100898.41
2023-03-19T09:19:46.263Z,100889.56
2023-03-19T09:22:13.507Z,100883.94
2023-03-19T09:24:40.890Z,100879.91
2023-03-19T09:27:08.180Z,100874.81
2023-03-19T09:29:35.474Z,100870.41
2023-03-19T09:32:02.690Z,100882.81
2023-03-19T09:34:29.893Z,100870.97
2023-03-19T09:36:57.061Z,100850.47
2023-03-19T09:39:24.152Z,100864.44
2023-03-19T09:42:03.966Z,100873.78
2023-03-19T09:44:35.071Z,100852.38
2023-03-19T09:47:29.167Z,100868.06
2023-03-19T09:49:59.712Z,100868.94
2023-03-19T09:52:44.251Z,100863.00
2023-03-19T09:55:26.289Z,100866.63
2023-03-19T09:57:55.780Z,100849.19
2023-03-19T10:00:27.310Z,100854.91
2023-03-19T10:03:13.216Z,100820.13
2023-03-19T10:06:03.440Z,100848.00
2023-03-19T10:09:13.733Z,100852.56
2023-03-19T10:12:02.244Z,100856.78
2023-03-19T10:14:47.320Z,100845.34
2023-03-19T10:17:23.119Z,100831.75
2023-03-19T10:20:07.985Z,100836.50
2023-03-19T10:23:14.083Z,100841.94
2023-03-19T10:25:43.103Z,100828.75
2023-03-19T10:28:18.802Z,100831.13
2023-03-19T10:31:15.716Z,100831.84
2023-03-19T10:33:46.632Z,100825.88
2023-03-19T10:36:16.121Z,100833.84
2023-03-19T10:38:44.362Z,100825.59
2023-03-19T10:41:17.348Z,100826.84
2023-03-19T10:43:54.465Z,100823.38
2023-03-19T10:46:22.042Z,100825.06
2023-03-19T10:48:49.232Z,100804.88
2023-03-19T10:51:27.034Z,100813.75
2023-03-19T10:53:57.939Z,100795.75
2023-03-19T10:56:27.471Z,100807.88
2023-03-19T10:59:07.085Z,100810.59
2023-03-19T11:01:39.985Z,100816.84
2023-03-19T11:04:18.147Z,100806.50
2023-03-19T11:06:50.923Z,100798.47
2023-03-19T11:09:28.573Z,100803.38
2023-03-19T11:12:05.751Z,100809.56
2023-03-19T11:14:38.839Z,100802.03
2023-03-19T11:17:29.861Z,100798.03
2023-03-19T11:19:59.289Z,100793.22
2023-03-19T11:22:34.174Z,100781.28
2023-03-19T11:25:14.949Z,100788.22
2023-03-19T11:27:42.179Z,100780.38
2023-03-19T11:30:20.167Z,100772.72
2023-03-19T11:33:14.320Z,100778.16
2023-03-19T11:35:51.141Z,100775.44
2023-03-19T11:38:48.790Z,100771.44
2023-03-19T11:42:02.215Z,100776.91
2023-03-19T11:44:50.877Z,100777.75
2023-03-19T11:47:28.288Z,100770.63
2023-03-19T11:50:18.522Z,100760.97
2023-03-19T11:53:10.930Z,100758.03
2023-03-19T11:55:43.793Z,100759.91
2023-03-19T11:58:35.138Z,100753.38
2023-03-19T12:01:17.694Z,100750.44
2023-03-19T12:04:06.242Z,100749.59
2023-03-19T12:06:46.077Z,100744.66
2023-03-19T12:09:23.283Z,100741.94
2023-03-19T12:12:02.698Z,100735.06
2023-03-19T12:14:32.603Z,100737.66
2023-03-19T12:17:17.425Z,100731.41
2023-03-19T12:20:38.335Z,100724.78
2023-03-19T12:23:14.412Z,100719.13
2023-03-19T12:25:44.118Z,100709.09
2023-03-19T12:28:23.067Z,100709.13
2023-03-19T12:31:11.338Z,100704.78
2023-03-19T12:33:53.387Z,100699.16
2023-03-19T12:36:32.215Z,100694.75
2023-03-19T12:39:05.458Z,100690.38
2023-03-19T12:41:41.737Z,100690.66
2023-03-19T12:44:30.890Z,100677.22
2023-03-19T12:47:04.754Z,100664.69
2023-03-19T12:49:39.520Z,100675.59
2023-03-19T12:52:26.746Z,100678.97
2023-03-19T12:55:12.492Z,100673.28
2023-03-19T12:58:24.239Z,100660.31
2023-03-19T13:00:53.814Z,100655.34
2023-03-19T13:04:02.456Z,100652.19
2023-03-19T13:06:55.320Z,100652.72
2023-03-19T13:09:32.172Z,100649.91
2023-03-19T13:12:05.372Z,100644.91
2023-03-19T13:14:35.554Z,100652.22
2023-03-19T13:17:22.429Z,100619.16
2023-03-19T13:19:54.237Z,100621.88
2023-03-19T13:22:24.709Z,100622.25
2023-03-19T13:24:53.627Z,100607.22
2023-03-19T13:27:32.590Z,100615.56
2023-03-19T13:30:11.590Z,100629.75
2023-03-19T13:33:05.157Z,100623.69
2023-03-19T13:35:51.474Z,100618.69
2023-03-19T13:38:44.676Z,100620.50
2023-03-19T13:41:33.677Z,100621.22
2023-03-19T13:44:21.551Z,100612.50
2023-03-19T13:46:49.778Z,100604.50
2023-03-19T13:49:19.647Z,100605.81
2023-03-19T13:51:50.424Z,100609.75
2023-03-19T13:54:32.530Z,100617.81
2023-03-19T13:57:03.467Z,100600.66
2023-03-19T13:59:32.914Z,100599.28
2023-03-19T14:02:24.390Z,100600.50
2023-03-19T14:05:04.607Z,100595.44
2023-03-19T14:07:40.644Z,100593.97
2023-03-19T14:10:17.584Z,100590.88
2023-03-19T14:12:45.515Z,100588.75
2023-03-19T14:15:28.579Z,100576.84
2023-03-19T14:18:02.852Z,100579.94
2023-03-19T14:20:52.333Z,100574.97
2023-03-19T14:23:40.621Z,100592.75
2023-03-19T14:26:31.039Z,100580.50
2023-03-19T14:29:08.529Z,100569.94
2023-03-19T14:31:44.211Z,100582.28
2023-03-19T14:34:11.299Z,100574.34
2023-03-19T14:36:43.126Z,100550.72
2023-03-19T14:39:21.804Z,100572.47
2023-03-19T14:41:56.806Z,100569.13
2023-03-19T14:44:48.088Z,100561.63
2023-03-19T14:47:37.454Z,100564.34
2023-03-19T14:50:35.528Z,100559.31
2023-03-19T14:53:27.018Z,100561.19
2023-03-19T14:55:54.376Z,100559.56
2023-03-19T14:58:22.389Z,100563.31
2023-03-19T15:00:52.210Z,100560.06
2023-03-19T15:03:23.393Z,100548.47
2023-03-19T15:05:56.464Z,100553.69
2023-03-19T15:08:24.611Z,100561.34
2023-03-19T15:11:14.398Z,100557.78
2023-03-19T15:14:03.094Z,100558.22
2023-03-19T15:16:42.164Z,100560.31
2023-03-19T15:19:13.770Z,100566.16
2023-03-19T15:21:40.942Z,100546.00
2023-03-19T15:24:16.323Z,100567.44
2023-03-19T15:26:46.270Z,100563.56
2023-03-19T15:29:13.754Z,100570.06
2023-03-19T15:31:52.686Z,100573.81
2023-03-19T15:34:28.193Z,100570.78
2023-03-19T15:37:02.486Z,100564.19
2023-03-19T15:39:34.685Z,100578.28
2023-03-19T15:42:04.575Z,100579.25
2023-03-19T15:44:39.766Z,100572.34
2023-03-19T15:47:12.040Z,100567.13
2023-03-19T15:49:45.808Z,100572.34
2023-03-19T15:52:17.504Z,100569.94
2023-03-19T15:54:44.930Z,100566.66
2023-03-19T15:57:15.936Z,100574.81
2023-03-19T15:59:43.092Z,100564.69
2023-03-19T16:02:39.953Z,100567.28
2023-03-19T16:05:21.478Z,100560.06
2023-03-19T16:08:02.782Z,100558.28
2023-03-19T16:10:36.732Z,100564.25
2023-03-19T16:13:20.908Z,100567.06
2023-03-19T16:15:54.169Z,100556.84
2023-03-19T16:18:21.645Z,100557.03
2023-03-19T16:21:08.402Z,100561.59
2023-03-19T16:23:43.811Z,100556.59
2023-03-19T16:26:23.359Z,100557.63
2023-03-19T16:29:11.885Z,100556.69
2023-03-19T16:31:46.116Z,100553.47
2023-03-19T16:34:31.411Z,100553.06
2023-03-19T16:36:59.681Z,100565.41
2023-03-19T16:41:25.608Z,100560.38
2023-03-19T16:43:54.434Z,100547.19
2023-03-19T16:46:22.085Z,100568.06
2023-03-19T16:48:49.416Z,100558.47
2023-03-19T16:51:19.728Z,100547.19
2023-03-19T16:53:48.345Z,100553.25
2023-03-19T16:56:16.718Z,100549.06
2023-03-19T16:58:45.289Z,100553.25
2023-03-19T17:01:19.577Z,100550.72
2023-03-19T17:03:47.734Z,100552.81
2023-03-19T17:06:16.066Z,100550.31
2023-03-19T17:08:43.668Z,100557.47
2023-03-19T17:11:16.973Z,100549.13
2023-03-19T17:13:45.358Z,100549.22
2023-03-19T17:16:13.078Z,100557.81
2023-03-19T17:18:43.390Z,100538.38
2023-03-19T17:21:13.508Z,100552.09
2023-03-19T17:23:41.051Z,100539.72
2023-03-19T17:26:27.935Z,100547.50
2023-03-19T17:28:56.659Z,100547.50
2023-03-19T17:31:29.854Z,100534.22
2023-03-19T17:34:02.418Z,100541.94
2023-03-19T17:36:30.505Z,100531.16
2023-03-19T17:38:57.844Z,100549.56
2023-03-19T17:41:25.093Z,100541.22
2023-03-19T17:43:52.463Z,100547.25
2023-03-19T17:46:23.452Z,100550.69
2023-03-19T17:48:51.515Z,100544.75
2023-03-19T17:51:19.416Z,100527.19
2023-03-19T17:53:50.004Z,100535.53
2023-03-19T17:56:20.730Z,100533.78
2023-03-19T17:58:50.284Z,100537.88
2023-03-19T18:01:27.396Z,100532.00
2023-03-19T18:03:56.326Z,100532.41
2023-03-19T18:06:25.847Z,100534.09
2023-03-19T18:08:53.019Z,100531.22
2023-03-19T18:11:20.301Z,100524.75
2023-03-19T18:13:47.601Z,100535.00
2023-03-19T18:16:20.435Z,100520.50
2023-03-19T18:18:50.515Z,100534.06
2023-03-19T18:21:18.430Z,100512.13
2023-03-19T18:23:46.710Z,100513.97
2023-03-19T18:26:14.400Z,100518.59
2023-03-19T18:28:41.560Z,100529.31
2023-03-19T18:31:22.123Z,100522.19
2023-03-19T18:33:53.870Z,100533.16
2023-03-19T18:36:25.936Z,100527.72
2023-03-19T18:38:55.220Z,100530.66
2023-03-19T18:41:24.974Z,100529.53
2023-03-19T18:44:08.056Z,100529.59
2023-03-19T18:46:36.616Z,100523.19
2023-03-19T18:49:23.552Z,100512.69
2023-03-19T18:52:02.034Z,100524.59
2023-03-19T18:54:31.271Z,100513.25
2023-03-19T18:57:00.373Z,100526.59
2023-03-19T18:59:30.960Z,100511.56
2023-03-19T19:02:13.029Z,100515.47
2023-03-19T19:04:40.229Z,100522.56
2023-03-19T19:07:12.598Z,100525.16
2023-03-19T19:09:39.824Z,100491.31
2023-03-19T19:12:09.482Z,100514.53
2023-03-19T19:14:36.640Z,100516.03
2023-03-19T19:17:03.790Z,100517.88
2023-03-19T19:19:30.976Z,100513.53
2023-03-19T19:21:58.154Z,100514.75
2023-03-19T19:24:25.514Z,100518.47
2023-03-19T19:26:54.327Z,100525.34
2023-03-19T19:29:28.529Z,100519.97
2023-03-19T19:31:56.450Z,100511.56
2023-03-19T19:34:24.026Z,100505.66
2023-03-19T19:36:52.587Z,100505.91
2023-03-19T19:39:19.749Z,100511.78
2023-03-19T19:41:48.091Z,100511.56
2023-03-19T19:44:19.647Z,100502.81
2023-03-19T19:46:46.791Z,100505.44
2023-03-19T19:49:17.078Z,100495.50
2023-03-19T19:51:44.263Z,100515.69
2023-03-19T19:54:11.597Z,100508.03
2023-03-19T19:56:39.324Z,100504.06
2023-03-19T19:59:08.059Z,100511.78
2023-03-19T20:01:35.646Z,100496.72
2023-03-19T20:04:04.349Z,100500.69
2023-03-19T20:06:33.518Z,100473.28
2023-03-19T20:09:00.670Z,100495.22
2023-03-19T20:11:27.901Z,100496.88
2023-03-19T20:13:56.742Z,100492.69
2023-03-19T20:16:26.829Z,100495.13
2023-03-19T20:18:55.141Z,100492.44
2023-03-19T20:21:23.096Z,100489.84
2023-03-19T20:23:55.411Z,100499.50
2023-03-19T20:26:24.771Z,100499.50
2023-03-19T20:28:52.814Z,100491.31
2023-03-19T20:31:26.680Z,100500.59
2023-03-19T20:33:53.954Z,100488.88
2023-03-19T20:36:21.303Z,100488.25
2023-03-19T20:38:48.574Z,100494.56
2023-03-19T20:41:20.430Z,100464.91
2023-03-19T20:43:48.057Z,100489.84
2023-03-19T20:46:18.850Z,100494.19
2023-03-19T20:48:46.799Z,100489.72
2023-03-19T20:51:26.214Z,100482.00
2023-03-19T20:53:53.458Z,100480.97
2023-03-19T20:56:24.557Z,100489.25
2023-03-19T20:58:52.172Z,100494.66
2023-03-19T21:01:19.846Z,100489.06
2023-03-19T21:03:47.153Z,100476.31
2023-03-19T21:06:23.219Z,100496.13
2023-03-19T21:08:54.587Z,100497.59
2023-03-19T21:11:24.062Z,100490.53
2023-03-19T21:13:53.389Z,100484.13
2023-03-19T21:16:27.483Z,100490.16
2023-03-19T21:18:55.032Z,100467.22
2023-03-19T21:21:32.564Z,100481.63
2023-03-19T21:24:06.825Z,100485.34
2023-03-19T21:26:39.512Z,100480.50
2023-03-19T21:29:12.137Z,100484.19
2023-03-19T21:31:39.274Z,100479.94
2023-03-19T21:34:06.447Z,100479.28
2023-03-19T21:36:33.550Z,100479.94
2023-03-19T21:39:01.384Z,100464.69
2023-03-19T21:41:33.508Z,100475.47
2023-03-19T21:44:12.726Z,100475.56
2023-03-19T21:46:39.911Z,100482.53
2023-03-19T21:49:11.586Z,100481.81
2023-03-19T21:51:38.726Z,100475.09
2023-03-19T21:54:06.017Z,100481.22
2023-03-19T21:56:37.720Z,100469.06
2023-03-19T21:59:29.086Z,100473.50
2023-03-19T22:01:56.626Z,100453.91
2023-03-19T22:04:23.903Z,100464.94
2023-03-19T22:06:51.012Z,100467.47
2023-03-19T22:09:18.118Z,100468.22
2023-03-19T22:11:46.168Z,100448.88
2023-03-19T22:14:19.694Z,100463.75
2023-03-19T22:16:47.852Z,100467.28
2023-03-19T22:19:16.503Z,100447.19
2023-03-19T22:21:43.916Z,100462.34
2023-03-19T22:24:11.189Z,100460.19
2023-03-19T22:26:42.940Z,100465.84
2023-03-19T22:29:15.549Z,100463.16
2023-03-19T22:31:42.830Z,100470.03
2023-03-19T22:34:18.723Z,100463.34
2023-03-19T22:36:46.152Z,100455.16
2023-03-19T22:39:13.752Z,100456.38
2023-03-19T22:41:45.622Z,100450.84
2023-03-19T22:44:30.831Z,100445.97
2023-03-19T22:47:00.741Z,100448.97
2023-03-19T22:49:29.894Z,100440.50
2023-03-19T22:51:57.866Z,100442.72
2023-03-19T22:54:25.673Z,100443.13
2023-03-19T22:56:52.798Z,100434.13
2023-03-19T22:59:20.443Z,100426.16
2023-03-19T23:01:48.257Z,100421.13
2023-03-19T23:04:24.054Z,100434.72
2023-03-19T23:06:52.253Z,100433.19
2023-03-19T23:09:26.471Z,100429.00
2023-03-19T23:11:54.239Z,100437.09
2023-03-19T23:14:29.598Z,100433.56
2023-03-19T23:17:03.669Z,100438.59
2023-03-19T23:19:33.711Z,100431.72
2023-03-19T23:22:03.288Z,100416.81
2023-03-19T23:24:31.011Z,100434.78
2023-03-19T23:27:00.233Z,100440.31
2023-03-19T23:29:32.597Z,100437.34
2023-03-19T23:31:59.850Z,100435.78
2023-03-19T23:34:28.791Z,100427.47
2023-03-19T23:36:56.921Z,100431.50
2023-03-19T23:39:24.647Z,100427.78
2023-03-19T23:41:56.383Z,100424.09
2023-03-19T23:44:23.604Z,100420.13
2023-03-19T23:46:51.903Z,100400.69
2023-03-19T23:49:28.895Z,100410.31
2023-03-19T23:51:56.770Z,100413.19
2023-03-19T23:54:31.602Z,100417.00
2023-03-19T23:57:01.671Z,100418.91
2023-03-19T23:59:33.753Z,100409.50
